Time;durP1;ratioP1;P1;durP2;ratioP2;P2;SDS_P1;SDS_P2;PMS_P1;PMS_P2;Temp;Humidity;BMP_temperature;BMP_pressure;BME280_temperature;BME280_humidity;BME280_pressure;Samples;Min_cycle;Max_cycle;Signal;HPM_P1;HPM_P2
2021/05/20 00:00:53;;;;;;;4.73;3.30;;;12.40;99.90;;;;;;5076564;28;20926;-78
2021/05/20 00:03:19;;;;;;;4.23;3.83;;;12.40;99.90;;;;;;5082310;28;20502;-79
2021/05/20 00:05:45;;;;;;;4.17;3.57;;;12.40;99.90;;;;;;5085625;28;20444;-79
2021/05/20 00:08:12;;;;;;;4.40;4.10;;;12.40;99.90;;;;;;5085600;28;20487;-80
2021/05/20 00:10:38;;;;;;;4.90;4.50;;;12.40;99.90;;;;;;5087743;28;20448;-79
2021/05/20 00:13:04;;;;;;;12.07;6.63;;;12.40;99.90;;;;;;5086720;28;20435;-80
2021/05/20 00:15:30;;;;;;;4.00;3.70;;;12.50;99.90;;;;;;5087135;28;20799;-80
2021/05/20 00:17:56;;;;;;;7.97;4.47;;;12.50;99.90;;;;;;5087480;28;20422;-80
2021/05/20 00:20:22;;;;;;;4.70;4.40;;;12.40;99.90;;;;;;5087452;28;20448;-79
2021/05/20 00:22:48;;;;;;;4.50;4.00;;;12.50;99.90;;;;;;5087862;28;20551;-79
2021/05/20 00:25:15;;;;;;;6.07;4.80;;;12.40;99.90;;;;;;5086877;28;20434;-79
2021/05/20 00:27:41;;;;;;;4.47;4.00;;;12.40;99.90;;;;;;5087652;28;20484;-80
2021/05/20 00:30:10;;;;;;;3.70;3.40;;;12.40;99.90;;;;;;5086250;28;20444;-79
2021/05/20 00:32:36;;;;;;;4.73;3.80;;;12.40;99.90;;;;;;5085581;28;20443;-79
2021/05/20 00:35:02;;;;;;;4.10;3.67;;;12.40;99.90;;;;;;5085273;28;20440;-79
2021/05/20 00:37:28;;;;;;;3.57;3.37;;;12.40;99.90;;;;;;5085880;28;20448;-79
2021/05/20 00:39:55;;;;;;;3.77;3.50;;;12.40;99.90;;;;;;5087249;28;20472;-79
2021/05/20 00:42:22;;;;;;;3.83;3.53;;;12.30;99.90;;;;;;5086667;28;20451;-79
2021/05/20 00:44:50;;;;;;;3.47;3.20;;;12.20;99.90;;;;;;5085151;28;20480;-79
2021/05/20 00:47:18;;;;;;;3.53;3.23;;;12.20;99.90;;;;;;5084557;28;20480;-79
2021/05/20 00:49:44;;;;;;;4.63;3.90;;;;;;;;;;5082124;28;20449;-79
2021/05/20 00:52:10;;;;;;;3.70;3.40;;;12.20;99.90;;;;;;5082259;28;20464;-79
2021/05/20 00:54:36;;;;;;;3.60;3.40;;;12.10;99.90;;;;;;5081496;28;20928;-79
2021/05/20 00:57:04;;;;;;;3.50;3.20;;;12.20;99.90;;;;;;5081744;28;20805;-79
2021/05/20 00:59:31;;;;;;;3.57;3.30;;;12.30;99.90;;;;;;5081490;28;20456;-79
2021/05/20 01:01:57;;;;;;;3.67;3.37;;;12.20;99.90;;;;;;5080505;28;20465;-79
2021/05/20 01:04:23;;;;;;;3.10;2.90;;;12.20;99.90;;;;;;5082717;28;20442;-79
2021/05/20 01:06:49;;;;;;;3.50;3.20;;;12.10;99.90;;;;;;5081318;28;20448;-79
2021/05/20 01:09:15;;;;;;;4.17;3.87;;;12.10;99.90;;;;;;5082406;28;20498;-79
2021/05/20 01:11:42;;;;;;;4.40;4.10;;;12.00;99.90;;;;;;5082257;28;20461;-79
2021/05/20 01:14:11;;;;;;;3.73;3.10;;;12.10;99.90;;;;;;5081624;28;20468;-80
2021/05/20 01:16:39;;;;;;;3.70;3.50;;;12.10;99.90;;;;;;5081599;28;20448;-80
2021/05/20 01:19:05;;;;;;;4.13;3.83;;;12.10;99.90;;;;;;5081558;28;20428;-79
2021/05/20 01:21:33;;;;;;;3.83;3.50;;;12.10;99.90;;;;;;5081953;28;20443;-80
2021/05/20 01:23:59;;;;;;;3.77;3.47;;;12.00;99.90;;;;;;5082492;28;20999;-79
2021/05/20 01:26:26;;;;;;;3.40;3.20;;;12.00;99.90;;;;;;5083319;28;20449;-80
2021/05/20 01:28:52;;;;;;;3.80;3.50;;;11.90;99.90;;;;;;5083421;28;20481;-80
2021/05/20 01:31:19;;;;;;;3.70;3.23;;;11.90;99.90;;;;;;5083131;28;20427;-80
2021/05/20 01:33:45;;;;;;;7.67;3.27;;;11.90;99.90;;;;;;5083053;28;20516;-79
2021/05/20 01:36:11;;;;;;;3.47;2.80;;;11.80;99.90;;;;;;5082339;28;20427;-79
2021/05/20 01:38:44;;;;;;;3.77;3.47;;;11.90;99.90;;;;;;5082231;28;20947;-79
2021/05/20 01:41:12;;;;;;;3.17;2.97;;;12.00;99.90;;;;;;5081154;28;20432;-79
2021/05/20 01:43:40;;;;;;;3.63;3.33;;;12.00;99.90;;;;;;5081833;28;20506;-79
2021/05/20 01:46:06;;;;;;;3.00;2.80;;;11.90;99.90;;;;;;5081550;28;21001;-79
2021/05/20 01:48:38;;;;;;;2.60;2.40;;;11.80;99.90;;;;;;5080731;28;20503;-79
2021/05/20 01:51:06;;;;;;;3.13;2.93;;;11.90;99.90;;;;;;5088385;28;20510;-79
2021/05/20 01:53:34;;;;;;;4.10;3.43;;;11.80;99.90;;;;;;5082557;28;20507;-79
2021/05/20 01:56:01;;;;;;;3.33;3.07;;;11.60;99.90;;;;;;5081830;28;20515;-79
2021/05/20 01:58:27;;;;;;;3.53;3.10;;;11.80;99.90;;;;;;5080790;28;20462;-79
2021/05/20 02:00:54;;;;;;;3.83;3.53;;;11.40;99.90;;;;;;5081955;28;20465;-79
2021/05/20 02:03:20;;;;;;;2.73;2.60;;;;;;;;;;5081488;28;20877;-79
2021/05/20 02:05:47;;;;;;;3.00;2.80;;;11.70;99.90;;;;;;5081551;28;20913;-79
2021/05/20 02:08:13;;;;;;;4.23;3.13;;;11.60;99.90;;;;;;5080738;28;20451;-79
2021/05/20 02:10:40;;;;;;;3.43;3.13;;;11.60;99.90;;;;;;5085292;28;20499;-79
2021/05/20 02:13:07;;;;;;;3.33;3.13;;;11.60;99.90;;;;;;5083184;28;20465;-79
2021/05/20 02:15:33;;;;;;;2.53;2.33;;;11.60;99.90;;;;;;5092318;28;20423;-79
2021/05/20 02:18:00;;;;;;;3.00;2.80;;;11.50;99.90;;;;;;5089725;28;20928;-79
2021/05/20 02:20:26;;;;;;;3.23;3.03;;;11.50;99.90;;;;;;5091069;28;20471;-79
2021/05/20 02:22:53;;;;;;;3.60;3.10;;;11.50;99.90;;;;;;5081236;28;20469;-79
2021/05/20 02:25:19;;;;;;;3.60;3.17;;;11.40;99.90;;;;;;5081265;28;20506;-79
2021/05/20 02:27:46;;;;;;;3.17;2.83;;;11.50;99.90;;;;;;5089376;28;20473;-79
2021/05/20 02:30:16;;;;;;;2.83;2.63;;;11.40;99.90;;;;;;5089459;28;20415;-79
2021/05/20 02:32:42;;;;;;;3.07;2.87;;;11.40;99.90;;;;;;5087019;28;20435;-79
2021/05/20 02:35:10;;;;;;;2.93;2.73;;;11.40;99.90;;;;;;5085136;28;20479;-79
2021/05/20 02:37:36;;;;;;;2.93;2.73;;;11.40;99.90;;;;;;5085376;28;20809;-79
2021/05/20 02:40:04;;;;;;;3.37;3.17;;;11.30;99.90;;;;;;5090403;28;20423;-79
2021/05/20 02:42:30;;;;;;;3.13;2.80;;;11.30;99.90;;;;;;5092127;28;20466;-79
2021/05/20 02:44:56;;;;;;;4.73;3.00;;;11.30;99.90;;;;;;5092717;28;20474;-78
2021/05/20 02:47:23;;;;;;;3.30;3.00;;;11.30;99.90;;;;;;5092367;28;20476;-79
2021/05/20 02:49:49;;;;;;;16.52;10.40;;;11.50;99.90;;;;;;5087176;28;20979;-79
2021/05/20 02:52:15;;;;;;;10.33;7.97;;;11.40;99.90;;;;;;5087992;28;20237;-79
2021/05/20 02:54:41;;;;;;;3.30;3.10;;;11.40;99.90;;;;;;5086020;28;20455;-78
2021/05/20 02:57:08;;;;;;;4.37;3.10;;;11.40;99.90;;;;;;5085381;28;20440;-79
2021/05/20 02:59:35;;;;;;;3.30;3.00;;;11.40;99.90;;;;;;5088002;28;20444;-79
2021/05/20 03:02:04;;;;;;;3.27;3.07;;;11.40;99.90;;;;;;5084502;28;20447;-78
2021/05/20 03:04:31;;;;;;;3.20;2.90;;;11.40;99.90;;;;;;5082889;28;20424;-78
2021/05/20 03:06:58;;;;;;;3.30;3.10;;;11.40;99.90;;;;;;5082358;28;20209;-78
2021/05/20 03:09:24;;;;;;;3.00;2.80;;;11.40;99.90;;;;;;5083970;28;20431;-78
2021/05/20 03:11:50;;;;;;;3.30;3.00;;;11.50;99.90;;;;;;5084883;28;20474;-78
2021/05/20 03:14:16;;;;;;;3.07;2.87;;;11.40;99.90;;;;;;5084037;28;20506;-78
2021/05/20 03:16:42;;;;;;;3.13;2.83;;;11.50;99.90;;;;;;5083493;28;21011;-78
2021/05/20 03:19:08;;;;;;;3.40;3.17;;;11.40;99.90;;;;;;5082410;28;20463;-78
2021/05/20 03:21:35;;;;;;;3.17;2.97;;;11.30;99.90;;;;;;5081314;28;20783;-78
2021/05/20 03:24:01;;;;;;;3.37;2.90;;;11.40;99.90;;;;;;5081342;28;20475;-78
2021/05/20 03:26:28;;;;;;;3.10;2.90;;;11.40;99.90;;;;;;5078976;28;20487;-79
2021/05/20 03:28:54;;;;;;;3.60;3.33;;;11.40;99.90;;;;;;5079785;28;20467;-78
2021/05/20 03:31:20;;;;;;;3.77;3.40;;;11.40;99.90;;;;;;5079954;28;20449;-79
2021/05/20 03:33:46;;;;;;;4.37;4.00;;;11.40;99.90;;;;;;5078786;28;20518;-78
2021/05/20 03:36:12;;;;;;;3.35;3.05;;;11.40;99.90;;;;;;5078637;28;20461;-78
2021/05/20 03:38:39;;;;;;;3.43;3.23;;;11.40;99.90;;;;;;5079364;28;20226;-79
2021/05/20 03:41:05;;;;;;;3.97;3.50;;;11.40;99.90;;;;;;5082943;28;20464;-79
2021/05/20 03:43:31;;;;;;;3.97;3.67;;;11.40;99.90;;;;;;5083648;28;20825;-78
2021/05/20 03:45:57;;;;;;;4.10;3.80;;;12.40;99.90;;;;;;5082782;28;20472;-79
2021/05/20 03:48:24;;;;;;;4.80;3.97;;;11.50;99.90;;;;;;5083108;28;20489;-79
2021/05/20 03:50:50;;;;;;;4.60;4.20;;;11.50;99.90;;;;;;5083198;28;20448;-78
2021/05/20 03:53:16;;;;;;;3.60;3.30;;;11.50;99.90;;;;;;5081901;28;20472;-78
2021/05/20 03:55:43;;;;;;;4.80;4.50;;;11.50;99.90;;;;;;5080247;28;20448;-78
2021/05/20 03:58:09;;;;;;;4.73;4.33;;;11.40;99.90;;;;;;5078404;28;20591;-79
2021/05/20 04:00:35;;;;;;;4.60;4.30;;;11.30;99.90;;;;;;5078284;28;20472;-78
2021/05/20 04:03:01;;;;;;;7.15;4.85;;;11.30;99.90;;;;;;5077394;28;20924;-79
2021/05/20 04:05:27;;;;;;;6.47;4.93;;;11.30;99.90;;;;;;5077131;28;20438;-78
2021/05/20 04:07:53;;;;;;;6.67;5.30;;;11.20;99.90;;;;;;5077768;28;20218;-79
2021/05/20 04:10:19;;;;;;;5.50;5.00;;;11.20;99.90;;;;;;5075283;28;20891;-79
2021/05/20 04:12:46;;;;;;;5.50;5.00;;;11.30;99.90;;;;;;5078013;28;20230;-79
2021/05/20 04:15:13;;;;;;;5.50;5.00;;;11.30;99.90;;;;;;5077812;28;20423;-79
2021/05/20 04:17:40;;;;;;;6.10;5.50;;;11.20;99.90;;;;;;5078371;28;20482;-79
2021/05/20 04:20:07;;;;;;;5.45;4.90;;;11.30;99.90;;;;;;5079274;28;20434;-78
2021/05/20 04:22:33;;;;;;;5.83;5.23;;;11.30;99.90;;;;;;5086474;28;20761;-79
2021/05/20 04:24:59;;;;;;;6.10;5.17;;;11.30;99.90;;;;;;5086549;28;20452;-79
2021/05/20 04:27:25;;;;;;;6.83;5.10;;;11.40;99.90;;;;;;5087446;28;20462;-79
2021/05/20 04:29:52;;;;;;;6.10;5.40;;;11.40;99.90;;;;;;5087866;28;20444;-78
2021/05/20 04:32:18;;;;;;;5.90;5.30;;;11.40;99.90;;;;;;5086933;28;20472;-79
2021/05/20 04:34:45;;;;;;;5.67;5.10;;;11.40;99.90;;;;;;5084944;28;20427;-79
2021/05/20 04:37:11;;;;;;;5.53;5.03;;;11.30;99.90;;;;;;5085631;28;20448;-79
2021/05/20 04:39:37;;;;;;;6.30;5.80;;;11.40;99.90;;;;;;5086221;28;20471;-79
2021/05/20 04:42:04;;;;;;;7.23;5.80;;;11.30;99.90;;;;;;5086215;28;20484;-79
2021/05/20 04:44:30;;;;;;;7.20;6.50;;;11.20;99.90;;;;;;5086538;28;20432;-79
2021/05/20 04:46:57;;;;;;;7.00;6.40;;;11.20;99.90;;;;;;5086718;28;20452;-79
2021/05/20 04:49:23;;;;;;;6.73;6.00;;;11.10;99.90;;;;;;5086010;28;20480;-78
2021/05/20 04:51:49;;;;;;;6.23;5.47;;;11.10;99.90;;;;;;5080383;28;20502;-79
2021/05/20 04:54:15;;;;;;;6.17;5.67;;;11.20;99.90;;;;;;5079693;28;20476;-79
2021/05/20 04:56:41;;;;;;;8.97;6.67;;;11.20;99.90;;;;;;5079262;28;20451;-79
2021/05/20 04:59:07;;;;;;;7.50;6.80;;;11.30;99.90;;;;;;5078284;28;20942;-79
2021/05/20 05:01:33;;;;;;;7.60;6.57;;;11.50;99.90;;;;;;5079173;28;20545;-79
2021/05/20 05:04:00;;;;;;;7.33;6.50;;;11.40;99.90;;;;;;5078789;28;20455;-79
2021/05/20 05:06:27;;;;;;;7.67;6.93;;;11.50;99.90;;;;;;5080010;28;20598;-79
2021/05/20 05:08:53;;;;;;;6.93;6.33;;;11.60;99.90;;;;;;5080185;28;20503;-79
2021/05/20 05:11:19;;;;;;;8.53;7.53;;;11.60;99.90;;;;;;5079828;28;20427;-79
2021/05/20 05:13:45;;;;;;;7.80;7.00;;;11.60;99.90;;;;;;5078629;28;20439;-79
2021/05/20 05:16:11;;;;;;;8.80;7.77;;;11.70;99.90;;;;;;5078192;28;20430;-79
2021/05/20 05:18:38;;;;;;;8.37;7.00;;;11.70;99.90;;;;;;5078071;28;20462;-79
2021/05/20 05:21:05;;;;;;;7.73;7.13;;;11.80;99.90;;;;;;5077717;28;20448;-79
2021/05/20 05:23:32;;;;;;;9.37;8.33;;;11.80;99.90;;;;;;5078535;28;20443;-79
2021/05/20 05:25:58;;;;;;;7.93;7.03;;;;;;;;;;5079150;28;20518;-79
2021/05/20 05:28:25;;;;;;;10.17;8.37;;;11.90;99.90;;;;;;5081435;28;20476;-79
2021/05/20 05:30:51;;;;;;;9.80;6.90;;;12.00;99.90;;;;;;5079796;28;20434;-79
2021/05/20 05:33:21;;;;;;;7.33;6.73;;;12.00;99.90;;;;;;5079429;28;20471;-79
2021/05/20 05:35:47;;;;;;;8.10;7.30;;;11.90;99.90;;;;;;5079016;28;20423;-80
2021/05/20 05:38:14;;;;;;;7.40;6.70;;;12.00;99.90;;;;;;5079097;28;20407;-79
2021/05/20 05:40:40;;;;;;;8.20;7.50;;;12.00;99.90;;;;;;5078146;28;20444;-79
2021/05/20 05:43:06;;;;;;;8.03;7.27;;;12.00;99.90;;;;;;5080009;28;20466;-79
2021/05/20 05:45:32;;;;;;;8.10;7.40;;;11.60;99.90;;;;;;5087681;28;20444;-79
2021/05/20 05:47:58;;;;;;;9.33;6.83;;;11.80;99.90;;;;;;5083051;28;20488;-79
2021/05/20 05:50:24;;;;;;;10.03;7.33;;;11.80;99.90;;;;;;5077910;28;20974;-79
2021/05/20 05:52:50;;;;;;;9.00;8.03;;;11.80;99.90;;;;;;5078401;28;20464;-79
2021/05/20 05:55:17;;;;;;;8.60;7.70;;;11.70;99.90;;;;;;5078625;28;20444;-79
2021/05/20 05:57:44;;;;;;;7.50;6.83;;;11.90;99.90;;;;;;5078045;28;20440;-80
2021/05/20 06:00:11;;;;;;;10.30;7.60;;;11.90;99.90;;;;;;5078168;28;20431;-79
2021/05/20 06:02:37;;;;;;;8.57;7.13;;;12.00;99.90;;;;;;5087016;28;20439;-79
2021/05/20 06:05:04;;;;;;;6.80;6.20;;;12.10;99.90;;;;;;5082535;28;20449;-79
2021/05/20 06:07:35;;;;;;;7.23;6.63;;;12.20;99.90;;;;;;5080410;28;20436;-79
2021/05/20 06:10:02;;;;;;;7.87;6.60;;;12.30;99.90;;;;;;5078657;28;20434;-79
2021/05/20 06:12:29;;;;;;;7.80;7.00;;;;;;;;;;5078646;28;20520;-79
2021/05/20 06:14:55;;;;;;;7.83;7.10;;;12.40;99.90;;;;;;5078392;28;20923;-79
2021/05/20 06:17:21;;;;;;;7.00;6.40;;;12.30;99.90;;;;;;5077379;28;20428;-79
2021/05/20 06:19:47;;;;;;;6.77;6.20;;;12.30;99.90;;;;;;5077892;28;20445;-79
2021/05/20 06:22:13;;;;;;;7.87;7.27;;;12.40;99.90;;;;;;5077929;28;21031;-79
2021/05/20 06:24:39;;;;;;;7.63;6.90;;;12.50;99.90;;;;;;5077600;28;20496;-79
2021/05/20 06:27:05;;;;;;;6.47;5.87;;;12.50;99.90;;;;;;5079935;28;20419;-79
2021/05/20 06:29:32;;;;;;;7.77;6.97;;;12.50;99.90;;;;;;5084387;28;20451;-79
2021/05/20 06:31:59;;;;;;;7.70;6.57;;;12.50;99.90;;;;;;5080701;28;20461;-78
2021/05/20 06:34:25;;;;;;;12.13;6.30;;;12.50;99.90;;;;;;5081362;28;20482;-78
2021/05/20 06:36:51;;;;;;;7.60;6.60;;;12.60;99.90;;;;;;5080430;28;20445;-78
2021/05/20 06:39:17;;;;;;;7.90;7.20;;;12.60;99.90;;;;;;5080622;28;20419;-79
2021/05/20 06:41:43;;;;;;;7.03;5.90;;;12.70;99.90;;;;;;5079800;28;20419;-79
2021/05/20 06:44:09;;;;;;;8.50;7.80;;;12.70;99.90;;;;;;5077341;28;20464;-79
2021/05/20 06:46:37;;;;;;;8.27;7.30;;;12.90;99.90;;;;;;5076273;28;20448;-79
2021/05/20 06:49:03;;;;;;;8.80;7.30;;;12.80;99.90;;;;;;5076765;28;20590;-78
2021/05/20 06:51:30;;;;;;;9.50;6.80;;;12.90;99.90;;;;;;5075876;28;20422;-79
2021/05/20 06:53:56;;;;;;;7.80;7.00;;;13.00;99.90;;;;;;5076329;28;20449;-79
2021/05/20 06:56:25;;;;;;;8.13;7.23;;;;;;;;;;5075574;28;20533;-79
2021/05/20 07:01:35;;;;;;;7.03;6.43;;;13.20;99.90;;;;;;5076326;28;20427;-79
2021/05/20 07:04:02;;;;;;;7.37;6.77;;;12.90;99.90;;;;;;5075986;28;20452;-79
2021/05/20 07:06:28;;;;;;;7.80;7.00;;;12.90;99.90;;;;;;5076144;28;20449;-79
2021/05/20 07:08:54;;;;;;;8.33;7.63;;;12.80;99.90;;;;;;5076482;28;20464;-79
2021/05/20 07:11:20;;;;;;;8.07;6.43;;;12.80;99.90;;;;;;5074737;28;20518;-78
2021/05/20 07:13:46;;;;;;;6.27;5.80;;;13.00;99.90;;;;;;5080077;28;20491;-79
2021/05/20 07:16:12;;;;;;;10.20;8.00;;;13.00;99.90;;;;;;5085760;28;20444;-79
2021/05/20 07:18:38;;;;;;;7.00;6.30;;;13.20;99.90;;;;;;5081003;28;20464;-78
2021/05/20 07:21:05;;;;;;;6.60;6.10;;;13.30;99.90;;;;;;5089515;28;20453;-80
2021/05/20 07:23:32;;;;;;;10.27;5.37;;;13.00;99.90;;;;;;5090331;28;20465;-80
2021/05/20 07:25:58;;;;;;;5.13;4.73;;;13.20;99.90;;;;;;5082674;28;20465;-80
2021/05/20 07:28:24;;;;;;;7.53;5.40;;;13.20;99.90;;;;;;5078500;28;20506;-80
2021/05/20 07:30:50;;;;;;;4.30;3.90;;;13.40;99.90;;;;;;5078713;28;20448;-80
2021/05/20 07:33:16;;;;;;;6.70;4.30;;;13.70;99.90;;;;;;5080602;28;20518;-81
2021/05/20 07:35:43;;;;;;;7.27;4.40;;;13.50;99.90;;;;;;5081630;28;20444;-81
2021/05/20 07:38:10;;;;;;;5.07;4.57;;;13.60;99.90;;;;;;5077206;28;20789;-79
2021/05/20 07:40:36;;;;;;;4.73;3.90;;;13.70;99.90;;;;;;5077990;28;20419;-80
2021/05/20 07:43:03;;;;;;;4.60;4.00;;;13.80;99.90;;;;;;5078000;28;20447;-80
2021/05/20 07:45:29;;;;;;;3.37;3.10;;;13.70;99.90;;;;;;5081583;28;20480;-80
2021/05/20 07:47:55;;;;;;;4.23;3.57;;;13.90;99.90;;;;;;5080642;28;20484;-80
2021/05/20 07:50:21;;;;;;;4.73;3.83;;;13.80;99.90;;;;;;5086242;28;20448;-79
2021/05/20 07:52:48;;;;;;;7.40;3.37;;;13.90;99.90;;;;;;5080955;28;20439;-79
2021/05/20 07:55:18;;;;;;;4.10;3.70;;;13.90;99.90;;;;;;5082248;28;20513;-79
2021/05/20 07:57:44;;;;;;;8.17;3.40;;;13.60;99.90;;;;;;5080313;28;20425;-80
2021/05/20 08:00:13;;;;;;;3.67;3.30;;;13.80;99.90;;;;;;5079434;28;20455;-80
2021/05/20 08:02:46;;;;;;;5.10;3.70;;;13.70;99.90;;;;;;5080584;28;20464;-80
2021/05/20 08:05:13;;;;;;;3.03;2.83;;;13.60;99.90;;;;;;5080606;28;20546;-80
2021/05/20 08:07:48;;;;;;;4.00;3.60;;;13.50;99.90;;;;;;5086228;28;20451;-79
2021/05/20 08:10:39;;;;;;;3.53;3.20;;;13.60;99.90;;;;;;5083775;28;20773;-80
2021/05/20 08:13:05;;;;;;;3.47;3.27;;;13.60;99.90;;;;;;5079672;28;20536;-80
2021/05/20 08:15:31;;;;;;;3.50;3.23;;;13.70;99.90;;;;;;5078016;28;20472;-78
2021/05/20 08:17:57;;;;;;;4.37;3.70;;;13.70;99.90;;;;;;5078181;28;20475;-79
2021/05/20 08:20:24;;;;;;;4.00;3.30;;;13.90;99.90;;;;;;5077783;28;20444;-79
2021/05/20 08:22:50;;;;;;;3.50;3.20;;;14.10;99.90;;;;;;5079335;28;21056;-80
2021/05/20 08:25:17;;;;;;;4.80;3.23;;;14.10;99.90;;;;;;5079136;28;20850;-80
2021/05/20 08:27:43;;;;;;;3.30;3.00;;;14.10;99.90;;;;;;5079133;28;20460;-79
2021/05/20 08:30:11;;;;;;;2.80;2.60;;;13.90;99.90;;;;;;5080169;28;20440;-80
2021/05/20 08:32:37;;;;;;;3.20;2.97;;;14.20;99.90;;;;;;5079233;28;20460;-79
2021/05/20 08:35:03;;;;;;;3.37;3.17;;;14.30;99.90;;;;;;5079095;28;20488;-79
2021/05/20 08:37:29;;;;;;;3.00;2.60;;;14.40;99.90;;;;;;5077366;28;20442;-79
2021/05/20 08:39:56;;;;;;;3.07;2.83;;;14.50;99.90;;;;;;5078541;28;20546;-79
2021/05/20 08:42:23;;;;;;;5.03;4.23;;;14.50;99.90;;;;;;5077892;28;20480;-79
2021/05/20 08:44:49;;;;;;;3.30;3.00;;;14.50;99.90;;;;;;5079155;28;20408;-79
2021/05/20 08:47:15;;;;;;;3.50;3.20;;;14.50;99.90;;;;;;5080415;28;20448;-79
2021/05/20 08:49:45;;;;;;;3.17;2.70;;;14.50;99.90;;;;;;5079526;28;20469;-79
2021/05/20 08:52:13;;;;;;;4.80;2.63;;;14.50;99.90;;;;;;5083529;28;20976;-79
2021/05/20 08:54:39;;;;;;;3.10;2.77;;;14.70;99.90;;;;;;5089864;28;20437;-79
2021/05/20 08:57:06;;;;;;;2.80;2.50;;;14.60;99.90;;;;;;5085012;28;20448;-78
2021/05/20 08:59:33;;;;;;;2.53;2.33;;;14.50;99.90;;;;;;5083561;28;20455;-79
2021/05/20 09:01:59;;;;;;;2.67;2.47;;;14.70;99.90;;;;;;5081755;28;20454;-78
2021/05/20 09:04:26;;;;;;;4.13;2.20;;;14.80;99.90;;;;;;5077176;28;20539;-78
2021/05/20 09:06:54;;;;;;;2.50;1.93;;;14.90;99.90;;;;;;5076835;28;20441;-78
2021/05/20 09:09:23;;;;;;;2.30;1.80;;;15.20;99.90;;;;;;5076585;28;20487;-78
2021/05/20 09:11:50;;;;;;;1.90;1.80;;;15.20;99.90;;;;;;5076409;28;20484;-79
2021/05/20 09:14:30;;;;;;;5.77;2.30;;;14.80;99.90;;;;;;5076630;28;20452;-78
2021/05/20 09:17:11;;;;;;;2.33;2.10;;;15.00;99.90;;;;;;5075773;28;20433;-78
2021/05/20 09:19:37;;;;;;;2.83;2.20;;;14.80;99.90;;;;;;5076381;28;20844;-78
2021/05/20 09:22:05;;;;;;;4.87;1.70;;;14.70;99.90;;;;;;5076285;28;20834;-78
2021/05/20 09:24:45;;;;;;;3.17;2.30;;;14.50;99.90;;;;;;5076978;28;20440;-78
2021/05/20 09:27:23;;;;;;;4.13;2.20;;;14.40;99.90;;;;;;5076478;28;20471;-79
2021/05/20 09:30:15;;;;;;;3.00;1.73;;;14.50;99.90;;;;;;5076163;28;20496;-78
2021/05/20 09:32:46;;;;;;;3.40;2.50;;;14.60;99.90;;;;;;5077629;28;20496;-78
2021/05/20 09:35:12;;;;;;;2.23;2.00;;;14.50;99.90;;;;;;5077974;28;20453;-77
2021/05/20 09:37:47;;;;;;;2.03;1.83;;;14.30;99.90;;;;;;5079846;28;20965;-77
2021/05/20 09:40:14;;;;;;;2.30;1.83;;;14.30;99.90;;;;;;5076395;28;20431;-77
2021/05/20 09:42:40;;;;;;;3.20;1.97;;;14.20;99.90;;;;;;5075918;28;20500;-77
2021/05/20 09:45:08;;;;;;;2.20;2.03;;;14.30;99.90;;;;;;5075575;28;20447;-77
2021/05/20 09:47:34;;;;;;;2.20;1.90;;;14.10;99.90;;;;;;5076702;28;20418;-77
2021/05/20 09:50:05;;;;;;;2.33;2.03;;;14.30;99.90;;;;;;5086577;28;20413;-77
2021/05/20 09:52:31;;;;;;;3.97;2.77;;;14.50;99.90;;;;;;5084263;28;20521;-77
2021/05/20 09:54:57;;;;;;;3.80;2.43;;;14.60;99.90;;;;;;5092788;28;20429;-77
2021/05/20 09:57:32;;;;;;;2.30;2.07;;;14.60;99.90;;;;;;5086337;28;20830;-77
2021/05/20 10:00:06;;;;;;;2.40;2.20;;;14.30;99.90;;;;;;5076552;28;20451;-78
2021/05/20 10:02:33;;;;;;;2.03;1.87;;;14.40;99.90;;;;;;5075279;28;20456;-77
2021/05/20 10:05:01;;;;;;;2.40;2.20;;;14.60;99.90;;;;;;5074902;28;20436;-77
2021/05/20 10:07:29;;;;;;;5.00;2.20;;;14.80;99.90;;;;;;5074892;28;20534;-77
2021/05/20 10:09:55;;;;;;;2.33;2.13;;;14.90;99.90;;;;;;5074169;28;20496;-77
2021/05/20 10:12:22;;;;;;;1.90;1.80;;;14.60;99.90;;;;;;5075813;28;20456;-77
2021/05/20 10:14:49;;;;;;;2.60;1.90;;;14.60;99.90;;;;;;5076839;28;20440;-77
2021/05/20 10:17:17;;;;;;;2.87;2.00;;;14.80;99.90;;;;;;5076668;28;20448;-78
2021/05/20 10:19:45;;;;;;;2.10;2.00;;;14.70;99.90;;;;;;5079843;28;20523;-78
2021/05/20 10:22:13;;;;;;;4.50;2.20;;;14.90;99.90;;;;;;5077206;28;20465;-78
2021/05/20 10:24:40;;;;;;;5.10;3.63;;;15.00;99.90;;;;;;5076406;28;20444;-78
2021/05/20 10:27:10;;;;;;;4.10;2.37;;;15.10;99.90;;;;;;5075062;28;20455;-77
2021/05/20 10:29:37;;;;;;;2.57;2.17;;;15.20;99.90;;;;;;5074648;28;20484;-78
2021/05/20 10:32:04;;;;;;;4.40;4.00;;;15.60;99.90;;;;;;5074486;28;20439;-77
2021/05/20 10:34:31;;;;;;;2.97;2.70;;;15.60;99.90;;;;;;5074630;28;20445;-77
2021/05/20 10:36:58;;;;;;;3.00;2.43;;;15.30;99.90;;;;;;5077608;28;20483;-79
2021/05/20 10:39:26;;;;;;;3.43;2.20;;;15.10;99.90;;;;;;5081598;28;20436;-79
2021/05/20 10:41:53;;;;;;;2.90;2.60;;;15.30;99.90;;;;;;5080935;28;21882;-79
2021/05/20 10:44:20;;;;;;;3.93;2.90;;;15.60;99.90;;;;;;5077892;28;20919;-80
2021/05/20 10:47:03;;;;;;;1.90;1.70;;;15.80;99.90;;;;;;5077444;28;20535;-80
2021/05/20 10:50:00;;;;;;;2.33;2.23;;;16.10;99.90;;;;;;5077948;28;20571;-79
2021/05/20 10:52:46;;;;;;;2.43;2.27;;;16.20;99.90;;;;;;5077072;28;20510;-81
2021/05/20 10:55:14;;;;;;;3.83;2.47;;;16.10;99.90;;;;;;5077674;28;20927;-80
2021/05/20 10:57:54;;;;;;;1.90;1.80;;;16.00;99.90;;;;;;5079046;28;20451;-78
2021/05/20 11:00:37;;;;;;;1.70;1.60;;;16.10;99.90;;;;;;5076635;28;20429;-79
2021/05/20 11:03:03;;;;;;;2.00;1.90;;;16.10;99.90;;;;;;5078595;28;20539;-81
2021/05/20 11:05:55;;;;;;;2.33;2.20;;;16.20;99.90;;;;;;5077504;28;20479;-80
2021/05/20 11:08:58;;;;;;;3.13;1.90;;;16.30;99.90;;;;;;5077950;28;20464;-80
2021/05/20 11:11:50;;;;;;;4.27;2.10;;;16.20;99.90;;;;;;5078942;28;20493;-80
2021/05/20 11:14:35;;;;;;;2.07;1.90;;;16.30;99.90;;;;;;5077830;28;20447;-80
2021/05/20 11:17:01;;;;;;;2.70;2.50;;;;;;;;;;5077661;28;20490;-80
2021/05/20 11:19:28;;;;;;;3.83;2.37;;;15.60;99.90;;;;;;5078738;28;20989;-80
2021/05/20 11:22:12;;;;;;;4.60;2.30;;;15.80;99.90;;;;;;5081094;28;20468;-80
2021/05/20 11:24:40;;;;;;;2.33;2.23;;;15.90;99.90;;;;;;5084308;28;20593;-80
2021/05/20 11:27:09;;;;;;;1.97;1.87;;;16.00;99.90;;;;;;5082373;28;20451;-80
2021/05/20 11:29:37;;;;;;;2.60;2.10;;;16.10;99.90;;;;;;5081035;28;20567;-79
2021/05/20 11:32:15;;;;;;;2.40;2.20;;;16.30;99.90;;;;;;5079932;28;20502;-79
2021/05/20 11:35:03;;;;;;;2.87;2.53;;;15.90;99.90;;;;;;5079781;28;20460;-79
2021/05/20 11:37:34;;;;;;;2.57;1.80;;;15.60;99.90;;;;;;5080216;28;20886;-79
2021/05/20 11:40:01;;;;;;;2.27;1.83;;;15.60;99.90;;;;;;5079141;28;20987;-79
2021/05/20 11:42:31;;;;;;;2.40;2.20;;;15.70;99.90;;;;;;5079439;28;20943;-79
2021/05/20 11:44:58;;;;;;;2.13;1.90;;;15.80;99.90;;;;;;5079637;28;20429;-79
2021/05/20 11:47:25;;;;;;;2.20;2.00;;;15.80;99.90;;;;;;5079880;28;20444;-79
2021/05/20 11:49:51;;;;;;;4.20;2.40;;;15.90;99.90;;;;;;5080954;28;20500;-79
2021/05/20 11:52:19;;;;;;;2.67;2.27;;;15.90;99.90;;;;;;5080345;28;20464;-79
2021/05/20 11:54:46;;;;;;;2.50;2.30;;;15.80;99.90;;;;;;5080111;28;20950;-79
2021/05/20 11:57:14;;;;;;;2.50;2.40;;;15.90;99.90;;;;;;5081779;28;20475;-80
2021/05/20 11:59:49;;;;;;;4.60;2.37;;;16.00;99.90;;;;;;5084410;28;20444;-79
2021/05/20 12:02:19;;;;;;;1.77;1.67;;;16.20;99.90;;;;;;5086120;28;20829;-79
2021/05/20 12:04:45;;;;;;;2.50;1.83;;;16.30;99.90;;;;;;5084678;28;20449;-79
2021/05/20 12:07:22;;;;;;;2.23;1.70;;;16.50;99.90;;;;;;5086491;28;20451;-79
2021/05/20 12:09:48;;;;;;;1.50;1.40;;;16.60;99.90;;;;;;5088731;28;20501;-79
2021/05/20 12:12:16;;;;;;;2.63;2.07;;;16.80;99.90;;;;;;5085881;28;20472;-79
2021/05/20 12:14:44;;;;;;;3.10;2.20;;;16.90;99.90;;;;;;5086541;28;20445;-80
2021/05/20 12:17:12;;;;;;;1.43;1.33;;;17.10;99.90;;;;;;5084994;28;20471;-79
2021/05/20 12:19:45;;;;;;;1.60;1.40;;;17.10;99.90;;;;;;5080867;28;20451;-78
2021/05/20 12:22:19;;;;;;;1.77;1.60;;;17.30;99.90;;;;;;5083035;28;20522;-79
2021/05/20 12:24:47;;;;;;;3.10;1.57;;;17.00;99.90;;;;;;5084372;28;20910;-80
2021/05/20 12:27:25;;;;;;;1.57;1.47;;;17.20;99.90;;;;;;5086163;28;20464;-80
2021/05/20 12:29:54;;;;;;;3.37;2.43;;;17.00;99.90;;;;;;5084170;28;21000;-80
2021/05/20 12:32:28;;;;;;;2.13;1.57;;;16.90;99.90;;;;;;5083941;28;20494;-81
2021/05/20 12:35:17;;;;;;;1.80;1.70;;;16.80;99.90;;;;;;5084521;28;20428;-81
2021/05/20 12:37:49;;;;;;;1.93;1.83;;;16.80;99.90;;;;;;5083044;28;20437;-80
2021/05/20 12:40:17;;;;;;;1.53;1.43;;;16.90;99.90;;;;;;5082790;28;20996;-80
2021/05/20 12:42:51;;;;;;;2.27;2.07;;;16.90;99.90;;;;;;5085196;28;20476;-81
2021/05/20 12:45:27;;;;;;;1.53;1.43;;;16.80;99.90;;;;;;5084049;28;20455;-80
2021/05/20 12:47:54;;;;;;;2.10;1.67;;;16.80;99.90;;;;;;5085082;28;20482;-82
2021/05/20 12:50:30;;;;;;;2.53;1.70;;;16.40;99.90;;;;;;5082714;28;20452;-81
2021/05/20 12:52:59;;;;;;;1.90;1.80;;;16.30;99.90;;;;;;5085274;28;20475;-82
2021/05/20 12:55:34;;;;;;;3.17;1.80;;;16.50;99.90;;;;;;5083744;28;20957;-82